createdAt,value
2022-09-04T00:00:15.114Z,15.40
2022-09-04T00:03:02.066Z,15.40
2022-09-04T00:05:35.807Z,15.30
2022-09-04T00:08:17.761Z,15.30
2022-09-04T00:11:08.930Z,15.30
2022-09-04T00:13:52.988Z,15.30
2022-09-04T00:16:41.663Z,15.30
2022-09-04T00:19:41.764Z,15.30
2022-09-04T00:22:57.271Z,15.30
2022-09-04T00:25:36.179Z,15.30
2022-09-04T00:28:35.685Z,15.20
2022-09-04T00:31:23.571Z,15.30
2022-09-04T00:34:19.603Z,15.20
2022-09-04T00:36:58.779Z,15.20
2022-09-04T00:39:58.124Z,15.20
2022-09-04T00:42:59.104Z,15.20
2022-09-04T00:45:42.011Z,15.10
2022-09-04T00:48:15.510Z,15.20
2022-09-04T00:51:13.452Z,15.20
2022-09-04T00:54:11.384Z,15.20
2022-09-04T00:56:54.962Z,15.20
2022-09-04T01:00:30.688Z,15.20
2022-09-04T01:03:44.592Z,15.10
2022-09-04T01:06:51.696Z,15.20
2022-09-04T01:10:06.394Z,15.20
2022-09-04T01:13:01.201Z,15.20
2022-09-04T01:15:55.248Z,15.20
2022-09-04T01:18:51.245Z,15.20
2022-09-04T01:25:14.375Z,15.20
2022-09-04T01:28:05.307Z,15.20
2022-09-04T01:31:08.859Z,15.20
2022-09-04T01:33:46.598Z,15.20
2022-09-04T01:36:28.513Z,15.30
2022-09-04T01:39:01.833Z,15.30
2022-09-04T01:41:38.818Z,15.30
2022-09-04T01:53:46.343Z,15.30
2022-09-04T01:56:31.036Z,15.30
2022-09-04T01:59:24.412Z,15.30
2022-09-04T02:02:15.111Z,15.30
2022-09-04T02:05:24.880Z,15.30
2022-09-04T02:08:18.387Z,15.20
2022-09-04T02:11:19.118Z,15.20
2022-09-04T02:17:43.311Z,15.20
2022-09-04T02:20:23.722Z,15.10
2022-09-04T02:22:58.081Z,15.10
2022-09-04T02:25:56.685Z,15.10
2022-09-04T02:28:51.044Z,15.10
2022-09-04T02:35:14.602Z,15.00
2022-09-04T02:37:47.827Z,15.00
2022-09-04T02:40:35.148Z,15.00
2022-09-04T02:43:53.422Z,15.00
2022-09-04T02:46:50.125Z,14.90
2022-09-04T02:49:44.442Z,14.90
2022-09-04T02:53:23.924Z,14.80
2022-09-04T02:56:36.212Z,14.80
2022-09-04T02:59:29.472Z,14.70
2022-09-04T03:02:07.253Z,14.70
2022-09-04T03:04:51.984Z,14.70
2022-09-04T03:10:44.606Z,14.60
2022-09-04T03:13:27.561Z,14.50
2022-09-04T03:16:29.226Z,14.50
2022-09-04T03:19:32.384Z,14.50
2022-09-04T03:26:21.841Z,14.40
2022-09-04T03:31:50.470Z,14.40
2022-09-04T03:34:46.236Z,14.30
2022-09-04T03:37:44.503Z,14.30
2022-09-04T03:40:47.140Z,14.30
2022-09-04T03:49:04.395Z,14.30
2022-09-04T03:59:41.377Z,14.20
2022-09-04T04:02:57.685Z,14.20
2022-09-04T04:06:15.392Z,14.20
2022-09-04T04:09:04.890Z,14.20
2022-09-04T04:12:00.562Z,14.20
2022-09-04T04:14:31.157Z,14.30
2022-09-04T04:17:26.863Z,14.30
2022-09-04T04:20:10.881Z,14.40
2022-09-04T04:23:21.674Z,14.40
2022-09-04T04:26:06.631Z,14.40
2022-09-04T04:29:22.932Z,14.40
2022-09-04T04:32:14.032Z,14.40
2022-09-04T04:34:58.661Z,14.40
2022-09-04T04:37:34.737Z,14.40
2022-09-04T04:40:18.938Z,14.40
2022-09-04T04:43:18.734Z,14.40
2022-09-04T04:46:11.883Z,14.40
2022-09-04T04:49:08.192Z,14.40
2022-09-04T04:51:42.534Z,14.40
2022-09-04T04:54:28.313Z,14.40
2022-09-04T04:57:05.430Z,14.40
2022-09-04T05:00:08.361Z,14.40
2022-09-04T05:02:54.708Z,14.30
2022-09-04T05:05:50.330Z,14.30
2022-09-04T05:08:31.406Z,14.30
2022-09-04T05:11:27.099Z,14.30
2022-09-04T05:14:03.674Z,14.30
2022-09-04T05:17:14.530Z,14.30
2022-09-04T05:20:35.260Z,14.30
2022-09-04T05:23:39.254Z,14.40
2022-09-04T05:26:47.439Z,14.40
2022-09-04T05:29:52.882Z,14.50
2022-09-04T05:32:41.079Z,14.50
2022-09-04T05:38:28.759Z,14.50
2022-09-04T05:41:40.974Z,14.60
2022-09-04T05:44:49.593Z,14.80
2022-09-04T05:51:01.967Z,15.40
2022-09-04T05:53:34.810Z,15.60
2022-09-04T05:56:28.572Z,15.60
2022-09-04T05:59:32.422Z,15.60
2022-09-04T06:02:55.512Z,15.70
2022-09-04T06:05:29.036Z,15.70
2022-09-04T06:08:29.050Z,16.20
2022-09-04T06:10:56.273Z,16.70
2022-09-04T06:14:09.928Z,17.10
2022-09-04T06:17:24.887Z,17.40
2022-09-04T06:20:06.672Z,17.80
2022-09-04T06:22:44.220Z,18.10
2022-09-04T06:25:38.817Z,18.30
2022-09-04T06:28:26.054Z,18.30
2022-09-04T06:31:40.986Z,18.40
2022-09-04T06:34:27.515Z,18.50
2022-09-04T06:37:23.059Z,18.50
2022-09-04T06:40:34.632Z,18.50
2022-09-04T06:43:22.407Z,18.50
2022-09-04T06:46:04.298Z,18.30
2022-09-04T06:48:49.656Z,18.10
2022-09-04T06:52:06.070Z,17.90
2022-09-04T06:54:54.308Z,17.80
2022-09-04T06:57:52.996Z,17.70
2022-09-04T07:00:20.825Z,17.70
2022-09-04T07:03:07.427Z,17.50
2022-09-04T07:05:55.849Z,17.50
2022-09-04T07:08:48.128Z,17.40
2022-09-04T07:11:23.861Z,17.40
2022-09-04T07:14:29.964Z,17.40
2022-09-04T07:17:40.261Z,17.30
2022-09-04T07:20:33.692Z,17.40
2022-09-04T07:23:16.444Z,17.50
2022-09-04T07:26:41.195Z,17.50
2022-09-04T07:29:33.096Z,17.50
2022-09-04T07:32:19.113Z,17.50
2022-09-04T07:35:04.856Z,17.60
2022-09-04T07:40:38.321Z,17.70
2022-09-04T07:43:06.395Z,17.70
2022-09-04T07:45:51.615Z,17.70
2022-09-04T07:48:47.336Z,17.80
2022-09-04T07:51:23.151Z,17.70
2022-09-04T07:54:22.324Z,17.80
2022-09-04T07:57:32.089Z,17.90
2022-09-04T08:00:21.467Z,18.00
2022-09-04T08:03:23.566Z,18.00
2022-09-04T08:06:15.038Z,18.10
2022-09-04T08:09:21.351Z,18.20
2022-09-04T08:12:26.196Z,18.30
2022-09-04T08:15:11.956Z,18.40
2022-09-04T08:17:58.138Z,18.50
2022-09-04T08:20:52.970Z,18.50
2022-09-04T08:23:57.278Z,18.60
2022-09-04T08:26:56.316Z,18.60
2022-09-04T08:29:24.040Z,18.60
2022-09-04T08:32:21.052Z,18.70
2022-09-04T08:35:14.576Z,18.70
2022-09-04T08:38:02.754Z,18.70
2022-09-04T08:40:54.205Z,18.80
2022-09-04T08:43:40.523Z,18.80
2022-09-04T08:46:39.584Z,18.90
2022-09-04T08:49:22.048Z,19.00
2022-09-04T08:52:18.615Z,19.00
2022-09-04T08:55:08.230Z,19.10
2022-09-04T08:58:24.662Z,19.10
2022-09-04T09:01:15.363Z,19.20
2022-09-04T09:04:00.831Z,19.40
2022-09-04T09:06:54.152Z,19.40
2022-09-04T09:09:58.671Z,19.50
2022-09-04T09:13:00.441Z,19.50
2022-09-04T09:15:45.975Z,19.60
2022-09-04T09:19:07.031Z,19.60
2022-09-04T09:22:12.800Z,19.70
2022-09-04T09:25:21.448Z,19.80
2022-09-04T09:28:23.672Z,19.90
2022-09-04T09:31:17.223Z,20.00
2022-09-04T09:34:11.763Z,20.00
2022-09-04T09:37:03.204Z,20.10
2022-09-04T09:40:01.713Z,20.20
2022-09-04T09:43:12.602Z,20.20
2022-09-04T09:46:31.461Z,20.40
2022-09-04T09:49:17.220Z,20.50
2022-09-04T09:52:16.997Z,20.70
2022-09-04T09:54:56.662Z,20.80
2022-09-04T09:57:46.072Z,21.20
2022-09-04T10:00:17.818Z,21.60
2022-09-04T10:03:24.467Z,22.10
2022-09-04T10:06:08.158Z,22.60
2022-09-04T10:09:09.590Z,23.10
2022-09-04T10:12:01.610Z,23.40
2022-09-04T10:14:46.793Z,23.60
2022-09-04T10:17:29.808Z,23.60
2022-09-04T10:20:15.309Z,23.50
2022-09-04T10:23:24.523Z,23.40
2022-09-04T10:26:18.934Z,23.30
2022-09-04T10:29:13.659Z,23.20
2022-09-04T10:32:07.119Z,23.30
2022-09-04T10:34:58.185Z,23.30
2022-09-04T10:37:45.423Z,23.30
2022-09-04T10:40:44.467Z,23.10
2022-09-04T10:43:40.143Z,23.00
2022-09-04T10:46:33.832Z,22.90
2022-09-04T10:49:22.477Z,23.00
2022-09-04T10:52:47.518Z,23.00
2022-09-04T10:55:27.683Z,23.10
2022-09-04T10:58:30.950Z,23.20
2022-09-04T11:01:16.990Z,23.20
2022-09-04T11:04:14.171Z,23.30
2022-09-04T11:07:18.307Z,23.30
2022-09-04T11:10:04.657Z,23.40
2022-09-04T11:13:27.431Z,23.40
2022-09-04T11:16:38.187Z,23.50
2022-09-04T11:19:50.281Z,23.60
2022-09-04T11:22:36.240Z,23.70
2022-09-04T11:25:33.437Z,23.70
2022-09-04T11:28:31.393Z,23.80
2022-09-04T11:31:21.247Z,23.90
2022-09-04T11:34:20.532Z,24.00
2022-09-04T11:37:27.295Z,24.10
2022-09-04T11:40:05.389Z,24.30
2022-09-04T11:43:06.220Z,24.40
2022-09-04T11:46:09.141Z,24.50
2022-09-04T11:48:53.032Z,24.50
2022-09-04T11:52:04.333Z,24.50
2022-09-04T11:55:14.225Z,24.40
2022-09-04T11:58:11.542Z,24.30
2022-09-04T12:01:08.506Z,24.30
2022-09-04T12:03:43.412Z,24.30
2022-09-04T12:06:40.237Z,24.30
2022-09-04T12:09:36.614Z,24.40
2022-09-04T12:12:31.328Z,24.50
2022-09-04T12:15:39.379Z,24.50
2022-09-04T12:18:54.602Z,24.60
2022-09-04T12:21:36.290Z,24.50
2022-09-04T12:24:21.955Z,24.50
2022-09-04T12:27:13.429Z,24.50
2022-09-04T12:30:04.674Z,24.50
2022-09-04T12:32:50.239Z,24.40
2022-09-04T12:35:33.976Z,24.40
2022-09-04T12:38:16.389Z,24.40
2022-09-04T12:41:17.023Z,24.60
2022-09-04T12:44:16.869Z,24.60
2022-09-04T12:47:17.838Z,24.60
2022-09-04T12:50:06.083Z,24.70
2022-09-04T12:52:49.009Z,24.90
2022-09-04T12:55:42.276Z,25.00
2022-09-04T12:58:28.877Z,25.00
2022-09-04T13:01:22.822Z,25.00
2022-09-04T13:04:00.172Z,25.10
2022-09-04T13:07:07.081Z,25.00
2022-09-04T13:09:53.302Z,25.00
2022-09-04T13:12:42.724Z,25.00
2022-09-04T13:15:24.735Z,24.90
2022-09-04T13:18:35.178Z,24.90
2022-09-04T13:21:27.204Z,25.00
2022-09-04T13:24:12.401Z,25.00
2022-09-04T13:27:01.808Z,25.10
2022-09-04T13:29:43.136Z,25.20
2022-09-04T13:33:04.325Z,25.00
2022-09-04T13:36:16.820Z,25.10
2022-09-04T13:39:02.994Z,25.20
2022-09-04T13:41:34.027Z,25.20
2022-09-04T13:44:23.265Z,25.20
2022-09-04T13:47:03.952Z,25.20
2022-09-04T13:49:58.784Z,25.20
2022-09-04T13:52:40.095Z,25.20
2022-09-04T13:55:15.940Z,25.20
2022-09-04T14:01:00.610Z,25.10
2022-09-04T14:03:36.779Z,25.00
2022-09-04T14:06:08.360Z,24.90
2022-09-04T14:08:40.170Z,24.70
2022-09-04T14:11:24.438Z,24.70
2022-09-04T14:14:35.471Z,24.60
2022-09-04T14:17:07.181Z,24.60
2022-09-04T14:19:37.561Z,24.60
2022-09-04T14:22:04.681Z,24.60
2022-09-04T14:25:15.151Z,24.60
2022-09-04T14:28:05.895Z,24.70
2022-09-04T14:31:10.787Z,24.80
2022-09-04T14:33:41.932Z,24.90
2022-09-04T14:36:22.429Z,25.00
2022-09-04T14:39:08.203Z,25.10
2022-09-04T14:42:06.756Z,25.20
2022-09-04T14:45:23.631Z,25.00
2022-09-04T14:47:56.002Z,25.00
2022-09-04T14:50:28.719Z,25.00
2022-09-04T14:53:01.555Z,25.00
2022-09-04T14:55:32.435Z,25.10
2022-09-04T14:58:20.006Z,25.20
2022-09-04T15:01:17.455Z,25.20
2022-09-04T15:03:55.720Z,25.20
2022-09-04T15:07:10.377Z,25.10
2022-09-04T15:09:55.022Z,25.00
2022-09-04T15:12:33.977Z,24.80
2022-09-04T15:15:20.421Z,24.80
2022-09-04T15:18:17.226Z,24.80
2022-09-04T15:20:59.048Z,24.70
2022-09-04T15:23:51.086Z,24.60
2022-09-04T15:26:32.581Z,24.60
2022-09-04T15:29:12.878Z,24.50
2022-09-04T15:31:42.195Z,24.50
2022-09-04T15:34:13.123Z,24.50
2022-09-04T15:36:40.966Z,24.40
2022-09-04T15:39:24.435Z,24.40
2022-09-04T15:41:51.671Z,24.30
2022-09-04T15:44:39.834Z,24.30
2022-09-04T15:47:36.777Z,24.20
2022-09-04T15:50:22.907Z,24.20
2022-09-04T15:53:01.129Z,24.20
2022-09-04T15:55:31.820Z,24.20
2022-09-04T15:58:25.320Z,24.20
2022-09-04T16:01:08.412Z,24.20
2022-09-04T16:04:02.043Z,24.10
2022-09-04T16:06:42.882Z,24.10
2022-09-04T16:09:23.459Z,24.10
2022-09-04T16:12:15.026Z,24.10
2022-09-04T16:14:51.402Z,24.10
2022-09-04T16:17:25.609Z,24.00
2022-09-04T16:20:20.643Z,24.00
2022-09-04T16:23:01.016Z,24.00
2022-09-04T16:25:41.149Z,23.90
2022-09-04T16:28:16.110Z,23.80
2022-09-04T16:30:43.510Z,23.80
2022-09-04T16:33:48.700Z,23.80
2022-09-04T16:36:28.853Z,23.70
2022-09-04T16:39:14.680Z,23.60
2022-09-04T16:41:59.196Z,23.50
2022-09-04T16:44:33.355Z,23.50
2022-09-04T16:47:25.765Z,23.40
2022-09-04T16:50:06.078Z,23.30
2022-09-04T16:52:45.502Z,23.20
2022-09-04T16:55:32.414Z,23.20
2022-09-04T16:58:03.853Z,23.10
2022-09-04T17:00:52.086Z,23.00
2022-09-04T17:03:25.305Z,23.00
2022-09-04T17:06:04.252Z,22.90
2022-09-04T17:08:38.312Z,22.90
2022-09-04T17:11:43.694Z,22.80
2022-09-04T17:14:30.530Z,22.80
2022-09-04T17:17:29.964Z,22.70
2022-09-04T17:20:12.113Z,22.70
2022-09-04T17:28:59.591Z,22.60
2022-09-04T17:29:01.869Z,22.60
2022-09-04T17:34:20.856Z,22.40
2022-09-04T17:40:34.729Z,22.30
2022-09-04T17:40:39.586Z,22.40
2022-09-04T17:41:53.062Z,22.20
2022-09-04T17:44:46.410Z,22.20
2022-09-04T17:47:43.090Z,22.10
2022-09-04T17:50:17.634Z,22.00
2022-09-04T17:53:14.659Z,22.00
2022-09-04T17:56:14.318Z,21.90
2022-09-04T17:58:53.058Z,21.80
2022-09-04T18:01:29.877Z,21.80
2022-09-04T18:04:38.303Z,21.70
2022-09-04T18:07:28.925Z,21.70
2022-09-04T18:10:19.169Z,21.60
2022-09-04T18:13:36.551Z,21.60
2022-09-04T18:16:11.984Z,21.50
2022-09-04T18:19:11.558Z,21.40
2022-09-04T18:21:59.210Z,21.40
2022-09-04T18:24:39.054Z,21.40
2022-09-04T18:27:19.263Z,21.30
2022-09-04T18:33:50.498Z,21.30
2022-09-04T18:37:20.593Z,21.20
2022-09-04T18:37:26.388Z,21.20
2022-09-04T18:39:09.722Z,21.10
2022-09-04T18:49:08.533Z,21.00
2022-09-04T18:50:28.033Z,21.00
2022-09-04T18:50:46.762Z,20.90
2022-09-04T18:51:26.660Z,20.90
2022-09-04T18:54:22.872Z,20.80
2022-09-04T18:57:01.342Z,20.80
2022-09-04T18:59:43.515Z,20.70
2022-09-04T19:02:29.429Z,20.70
2022-09-04T19:05:15.463Z,20.70
2022-09-04T19:07:48.298Z,20.60
2022-09-04T19:10:37.593Z,20.60
2022-09-04T19:13:29.986Z,20.60
2022-09-04T19:16:26.828Z,20.60
2022-09-04T19:19:11.178Z,20.50
2022-09-04T19:22:06.210Z,20.50
2022-09-04T19:24:53.745Z,20.40
2022-09-04T19:27:45.300Z,20.40
2022-09-04T19:30:20.036Z,20.30
2022-09-04T19:33:00.087Z,20.40
2022-09-04T19:35:41.832Z,20.30
2022-09-04T19:43:30.461Z,20.20
2022-09-04T19:46:03.258Z,20.20
2022-09-04T19:46:11.432Z,20.20
2022-09-04T19:47:27.329Z,20.20
2022-09-04T19:53:31.896Z,20.10
2022-09-04T19:53:46.965Z,20.10
2022-09-04T19:56:26.147Z,20.00
2022-09-04T19:59:14.315Z,20.00
2022-09-04T20:02:02.834Z,20.00
2022-09-04T20:04:42.069Z,19.90
2022-09-04T20:07:17.869Z,19.90
2022-09-04T20:09:55.369Z,19.90
2022-09-04T20:12:37.714Z,19.80
2022-09-04T20:15:15.086Z,19.80
2022-09-04T20:18:04.323Z,19.80
2022-09-04T20:20:52.725Z,19.70
2022-09-04T20:23:55.217Z,19.60
2022-09-04T20:26:28.598Z,19.60
2022-09-04T20:29:00.116Z,19.50
2022-09-04T20:31:36.363Z,19.50
2022-09-04T20:34:17.763Z,19.50
2022-09-04T20:36:50.283Z,19.40
2022-09-04T20:39:53.564Z,19.40
2022-09-04T20:42:26.704Z,19.30
2022-09-04T20:47:17.617Z,19.30
2022-09-04T20:52:49.399Z,19.30
2022-09-04T20:52:58.059Z,19.30
2022-09-04T20:54:03.812Z,19.20
2022-09-04T21:00:50.156Z,19.20
2022-09-04T21:03:07.791Z,19.20
2022-09-04T21:03:29.447Z,19.10
2022-09-04T21:06:13.099Z,19.10
2022-09-04T21:09:06.067Z,19.10
2022-09-04T21:11:42.058Z,19.00
2022-09-04T21:14:45.450Z,19.00
2022-09-04T21:17:47.587Z,19.00
2022-09-04T21:21:01.012Z,19.00
2022-09-04T21:23:56.474Z,19.00
2022-09-04T21:26:48.845Z,18.90
2022-09-04T21:29:37.870Z,18.80
2022-09-04T21:32:52.714Z,18.80
2022-09-04T21:35:29.930Z,18.80
2022-09-04T21:38:00.053Z,18.70
2022-09-04T21:40:58.085Z,18.70
2022-09-04T21:43:40.474Z,18.70
2022-09-04T21:46:11.595Z,18.70
2022-09-04T21:48:57.264Z,18.60
2022-09-04T21:51:42.125Z,18.60
2022-09-04T21:54:18.436Z,18.60
2022-09-04T22:02:25.186Z,18.60
2022-09-04T22:02:38.970Z,18.60
2022-09-04T22:03:42.446Z,18.60
2022-09-04T22:06:49.440Z,18.60
2022-09-04T22:13:32.291Z,18.50
2022-09-04T22:13:45.649Z,18.50
2022-09-04T22:15:57.256Z,18.60
2022-09-04T22:18:45.838Z,18.60
2022-09-04T22:21:38.276Z,18.60
2022-09-04T22:24:28.727Z,18.60
2022-09-04T22:27:35.501Z,18.50
2022-09-04T22:30:22.508Z,18.50
2022-09-04T22:33:16.004Z,18.40
2022-09-04T22:35:55.539Z,18.50
2022-09-04T22:38:25.793Z,18.50
2022-09-04T22:41:01.839Z,18.40
2022-09-04T22:43:46.845Z,18.40
2022-09-04T22:46:36.239Z,18.40
2022-09-04T22:49:33.233Z,18.30
2022-09-04T22:52:23.549Z,18.40
2022-09-04T22:55:17.550Z,18.30
2022-09-04T22:58:30.812Z,18.30
2022-09-04T23:01:32.874Z,18.30
2022-09-04T23:04:24.415Z,18.30
2022-09-04T23:12:02.196Z,18.30
2022-09-04T23:14:01.899Z,18.20
2022-09-04T23:14:05.380Z,18.20
2022-09-04T23:16:52.370Z,18.10
2022-09-04T23:24:05.990Z,18.10
2022-09-04T23:26:35.203Z,18.10
2022-09-04T23:26:42.222Z,18.00
2022-09-04T23:29:21.312Z,18.00
2022-09-04T23:32:22.555Z,17.90
2022-09-04T23:35:47.918Z,17.90
2022-09-04T23:38:15.227Z,17.90
2022-09-04T23:40:51.931Z,17.80
2022-09-04T23:44:05.261Z,17.80
2022-09-04T23:47:09.706Z,17.80
2022-09-04T23:50:17.880Z,17.80
2022-09-04T23:53:03.588Z,17.70
2022-09-04T23:56:05.973Z,17.70
2022-09-04T23:59:21.207Z,17.70
